createdAt,value
2022-12-04T00:00:32.593Z,101200.06
2022-12-04T00:03:03.171Z,101213.28
2022-12-04T00:05:33.756Z,101209.63
2022-12-04T00:08:04.102Z,101218.06
2022-12-04T00:10:36.830Z,101209.63
2022-12-04T00:13:07.278Z,101211.19
2022-12-04T00:15:38.026Z,101215.63
2022-12-04T00:18:08.428Z,101210.72
2022-12-04T00:20:43.311Z,101218.34
2022-12-04T00:23:13.322Z,101215.06
2022-12-04T00:25:49.008Z,101216.59
2022-12-04T00:28:20.520Z,101215.28
2022-12-04T00:30:51.024Z,101221.63
2022-12-04T00:33:21.092Z,101226.78
2022-12-04T00:35:51.178Z,101222.34
2022-12-04T00:38:21.511Z,101219.03
2022-12-04T00:40:55.641Z,101217.41
2022-12-04T00:43:26.868Z,101222.91
2022-12-04T00:45:57.909Z,101228.91
2022-12-04T00:48:28.725Z,101219.19
2022-12-04T00:50:59.465Z,101214.75
2022-12-04T00:53:30.276Z,101215.06
2022-12-04T00:56:06.804Z,101215.06
2022-12-04T00:58:37.572Z,101217.44
2022-12-04T01:01:11.494Z,101220.25
2022-12-04T01:03:42.266Z,101217.78
2022-12-04T01:06:23.118Z,101222.22
2022-12-04T01:08:55.904Z,101218.59
2022-12-04T01:11:29.773Z,101214.97
2022-12-04T01:14:01.031Z,101212.50
2022-12-04T01:16:35.077Z,101212.50
2022-12-04T01:19:07.992Z,101205.25
2022-12-04T01:21:39.811Z,101211.69
2022-12-04T01:24:11.489Z,101200.44
2022-12-04T01:26:43.977Z,101208.88
2022-12-04T01:29:14.571Z,101212.84
2022-12-04T01:31:44.751Z,101212.84
2022-12-04T01:34:15.338Z,101202.81
2022-12-04T01:36:45.361Z,101212.41
2022-12-04T01:39:15.355Z,101209.59
2022-12-04T01:41:47.512Z,101208.75
2022-12-04T01:44:21.557Z,101208.44
2022-12-04T01:46:56.568Z,101211.25
2022-12-04T01:49:35.640Z,101207.22
2022-12-04T01:52:12.396Z,101209.22
2022-12-04T01:54:49.127Z,101201.59
2022-12-04T01:57:23.348Z,101204.41
2022-12-04T01:59:59.747Z,101205.25
2022-12-04T02:02:36.995Z,101200.78
2022-12-04T02:05:10.782Z,101197.19
2022-12-04T02:07:43.914Z,101202.81
2022-12-04T02:10:15.183Z,101198.69
2022-12-04T02:13:04.077Z,101206.31
2022-12-04T02:15:47.436Z,101198.25
2022-12-04T02:18:32.929Z,101205.03
2022-12-04T02:21:12.708Z,101209.00
2022-12-04T02:24:34.797Z,101207.69
2022-12-04T02:27:10.874Z,101216.13
2022-12-04T02:29:52.483Z,101216.97
2022-12-04T02:32:30.217Z,101214.97
2022-12-04T02:35:06.350Z,101213.31
2022-12-04T02:37:43.231Z,101214.16
2022-12-04T02:40:23.474Z,101208.53
2022-12-04T02:43:02.676Z,101224.22
2022-12-04T02:45:43.547Z,101209.34
2022-12-04T02:48:22.076Z,101215.31
2022-12-04T02:50:58.648Z,101210.88
2022-12-04T02:53:35.083Z,101214.53
2022-12-04T02:56:12.336Z,101213.69
2022-12-04T02:58:49.660Z,101220.94
2022-12-04T03:01:28.842Z,101213.69
2022-12-04T03:04:03.229Z,101224.94
2022-12-04T03:06:39.124Z,101225.75
2022-12-04T03:09:16.546Z,101216.50
2022-12-04T03:11:55.191Z,101220.47
2022-12-04T03:14:33.416Z,101220.47
2022-12-04T03:17:12.470Z,101213.22
2022-12-04T03:19:49.606Z,101219.19
2022-12-04T03:22:24.487Z,101224.81
2022-12-04T03:24:57.777Z,101221.19
2022-12-04T03:27:37.705Z,101222.00
2022-12-04T03:30:11.647Z,101223.16
2022-12-04T03:32:52.010Z,101214.25
2022-12-04T03:35:29.137Z,101221.06
2022-12-04T03:38:06.663Z,101221.88
2022-12-04T03:40:44.572Z,101223.06
2022-12-04T03:43:22.891Z,101225.03
2022-12-04T03:46:00.566Z,101231.84
2022-12-04T03:48:43.339Z,101230.53
2022-12-04T03:51:24.892Z,101243.78
2022-12-04T03:54:04.488Z,101240.13
2022-12-04T03:56:41.428Z,101243.31
2022-12-04T03:59:18.717Z,101240.50
2022-12-04T04:01:51.469Z,101241.66
2022-12-04T04:04:32.406Z,101243.66
2022-12-04T04:07:12.789Z,101245.97
2022-12-04T04:09:50.512Z,101240.69
2022-12-04T04:12:27.872Z,101253.09
2022-12-04T04:15:22.417Z,101252.63
2022-12-04T04:18:11.143Z,101253.31
2022-12-04T04:21:06.592Z,101246.41
2022-12-04T04:24:00.242Z,101254.72
2022-12-04T04:26:38.763Z,101253.09
2022-12-04T04:29:08.636Z,101253.09
2022-12-04T04:31:46.766Z,101264.31
2022-12-04T04:34:27.561Z,101261.50
2022-12-04T04:37:11.195Z,101267.13
2022-12-04T04:39:47.780Z,101265.13
2022-12-04T04:42:26.801Z,101267.59
2022-12-04T04:45:07.477Z,101270.06
2022-12-04T04:47:46.071Z,101262.47
2022-12-04T04:50:19.784Z,101268.09
2022-12-04T04:52:58.629Z,101265.28
2022-12-04T04:55:29.324Z,101265.28
2022-12-04T04:58:10.933Z,101263.28
2022-12-04T05:00:43.097Z,101268.88
2022-12-04T05:03:13.711Z,101267.72
2022-12-04T05:05:44.221Z,101258.47
2022-12-04T05:08:16.520Z,101264.56
2022-12-04T05:10:47.084Z,101264.56
2022-12-04T05:13:18.370Z,101261.41
2022-12-04T05:15:58.906Z,101265.03
2022-12-04T05:18:29.912Z,101266.69
2022-12-04T05:20:58.764Z,101263.50
2022-12-04T05:23:31.132Z,101264.34
2022-12-04T05:26:05.857Z,101275.22
2022-12-04T05:28:36.433Z,101274.88
2022-12-04T05:31:07.306Z,101267.78
2022-12-04T05:33:37.835Z,101274.69
2022-12-04T05:36:11.729Z,101282.44
2022-12-04T05:38:44.549Z,101282.53
2022-12-04T05:41:14.229Z,101285.47
2022-12-04T05:43:44.633Z,101288.41
2022-12-04T05:46:14.613Z,101288.50
2022-12-04T05:48:44.538Z,101294.25
2022-12-04T05:51:14.653Z,101294.03
2022-12-04T05:53:47.607Z,101296.97
2022-12-04T05:56:17.750Z,101301.53
2022-12-04T05:58:48.383Z,101307.38
2022-12-04T06:01:22.963Z,101309.72
2022-12-04T06:03:53.783Z,101308.22
2022-12-04T06:06:28.082Z,101304.13
2022-12-04T06:09:02.543Z,101312.50
2022-12-04T06:11:35.608Z,101310.13
2022-12-04T06:14:07.838Z,101309.28
2022-12-04T06:16:41.363Z,101310.88
2022-12-04T06:19:18.018Z,101304.84
2022-12-04T06:21:50.247Z,101304.75
2022-12-04T06:24:25.114Z,101312.75
2022-12-04T06:29:50.775Z,101316.97
2022-12-04T06:32:22.032Z,101323.56
2022-12-04T06:34:54.635Z,101312.78
2022-12-04T06:37:27.993Z,101316.13
2022-12-04T06:39:59.660Z,101314.56
2022-12-04T06:42:29.869Z,101314.53
2022-12-04T06:45:00.274Z,101318.16
2022-12-04T06:47:30.757Z,101322.97
2022-12-04T06:50:01.113Z,101329.75
2022-12-04T06:52:31.411Z,101318.69
2022-12-04T06:55:03.144Z,101318.59
2022-12-04T06:57:33.051Z,101318.84
2022-12-04T07:00:03.905Z,101321.13
2022-12-04T07:02:34.358Z,101318.88
2022-12-04T07:05:04.414Z,101318.66
2022-12-04T07:07:34.686Z,101322.06
2022-12-04T07:10:07.547Z,101318.16
2022-12-04T07:12:37.559Z,101323.16
2022-12-04T07:15:09.055Z,101320.47
2022-12-04T07:17:39.246Z,101320.94
2022-12-04T07:20:11.665Z,101312.09
2022-12-04T07:22:42.416Z,101317.88
2022-12-04T07:25:15.700Z,101309.81
2022-12-04T07:27:46.060Z,101318.00
2022-12-04T07:30:17.682Z,101317.66
2022-12-04T07:32:48.075Z,101320.91
2022-12-04T07:35:18.182Z,101323.38
2022-12-04T07:37:49.023Z,101318.88
2022-12-04T07:40:21.633Z,101309.50
2022-12-04T07:42:51.843Z,101312.34
2022-12-04T07:45:22.773Z,101317.59
2022-12-04T07:47:52.985Z,101311.00
2022-12-04T07:50:23.533Z,101310.13
2022-12-04T07:52:53.595Z,101312.03
2022-12-04T07:55:25.846Z,101307.84
2022-12-04T07:57:55.769Z,101292.59
2022-12-04T08:00:26.609Z,101297.75
2022-12-04T08:02:57.148Z,101299.13
2022-12-04T08:05:27.736Z,101298.03
2022-12-04T08:07:58.385Z,101295.28
2022-12-04T08:10:29.943Z,101293.28
2022-12-04T08:13:00.376Z,101291.22
2022-12-04T08:15:30.407Z,101290.72
2022-12-04T08:18:01.100Z,101286.13
2022-12-04T08:20:31.283Z,101276.53
2022-12-04T08:23:01.787Z,101279.13
2022-12-04T08:25:34.206Z,101276.88
2022-12-04T08:28:04.162Z,101266.78
2022-12-04T08:30:35.810Z,101268.06
2022-12-04T08:33:06.425Z,101263.94
2022-12-04T08:35:37.570Z,101261.97
2022-12-04T08:38:08.522Z,101259.16
2022-12-04T08:40:41.429Z,101259.34
2022-12-04T08:43:11.854Z,101255.53
2022-12-04T08:45:42.078Z,101258.66
2022-12-04T08:48:12.466Z,101251.00
2022-12-04T08:50:48.115Z,101248.78
2022-12-04T08:53:18.722Z,101248.72
2022-12-04T08:55:50.934Z,101245.22
2022-12-04T08:58:22.300Z,101248.19
2022-12-04T09:00:52.938Z,101249.09
2022-12-04T09:03:30.553Z,101246.59
2022-12-04T09:06:04.254Z,101246.09
2022-12-04T09:08:35.727Z,101241.50
2022-12-04T09:11:11.355Z,101247.09
2022-12-04T09:13:42.669Z,101237.09
2022-12-04T09:16:16.650Z,101229.53
2022-12-04T09:18:47.750Z,101236.22
2022-12-04T09:21:21.476Z,101230.22
2022-12-04T09:23:52.109Z,101228.25
2022-12-04T09:26:27.562Z,101228.72
2022-12-04T09:29:00.482Z,101227.53
2022-12-04T09:31:31.581Z,101231.63
2022-12-04T09:34:02.086Z,101228.03
2022-12-04T09:36:34.898Z,101220.81
2022-12-04T09:39:05.465Z,101216.00
2022-12-04T09:42:19.093Z,101209.94
2022-12-04T09:44:55.875Z,101214.53
2022-12-04T09:47:32.422Z,101205.22
2022-12-04T09:50:12.447Z,101202.41
2022-12-04T09:52:56.990Z,101202.09
2022-12-04T09:55:31.458Z,101197.59
2022-12-04T09:58:08.863Z,101187.06
2022-12-04T10:00:44.439Z,101186.25
2022-12-04T10:03:23.301Z,101198.03
2022-12-04T10:06:10.001Z,101182.97
2022-12-04T10:08:44.362Z,101184.16
2022-12-04T10:11:22.159Z,101183.28
2022-12-04T10:14:31.717Z,101178.38
2022-12-04T10:17:33.009Z,101178.31
2022-12-04T10:20:24.803Z,101175.47
2022-12-04T10:23:14.693Z,101172.53
2022-12-04T10:25:46.661Z,101168.03
2022-12-04T10:28:27.937Z,101170.41
2022-12-04T10:31:04.596Z,101163.00
2022-12-04T10:33:43.929Z,101161.28
2022-12-04T10:36:18.274Z,101162.03
2022-12-04T10:38:55.700Z,101155.47
2022-12-04T10:41:34.646Z,101158.25
2022-12-04T10:44:05.354Z,101155.78
2022-12-04T10:46:43.155Z,101153.31
2022-12-04T10:49:23.466Z,101149.59
2022-12-04T10:51:54.163Z,101148.31
2022-12-04T10:54:32.640Z,101143.78
2022-12-04T10:57:05.814Z,101146.59
2022-12-04T10:59:37.458Z,101143.72
2022-12-04T11:02:24.131Z,101146.09
2022-12-04T11:04:58.996Z,101141.56
2022-12-04T11:07:32.455Z,101136.63
2022-12-04T11:10:07.245Z,101134.50
2022-12-04T11:12:37.069Z,101142.47
2022-12-04T11:15:28.268Z,101139.94
2022-12-04T11:18:10.942Z,101134.94
2022-12-04T11:20:46.715Z,101134.00
2022-12-04T11:23:19.524Z,101133.50
2022-12-04T11:25:53.664Z,101133.47
2022-12-04T11:28:41.609Z,101129.41
2022-12-04T11:31:21.057Z,101132.97
2022-12-04T11:34:00.013Z,101128.44
2022-12-04T11:36:34.982Z,101137.34
2022-12-04T11:39:19.619Z,101129.22
2022-12-04T11:41:50.243Z,101124.28
2022-12-04T11:44:29.214Z,101125.88
2022-12-04T11:47:04.520Z,101121.34
2022-12-04T11:49:42.269Z,101122.94
2022-12-04T11:52:32.822Z,101115.66
2022-12-04T11:55:11.281Z,101120.06
2022-12-04T11:57:53.954Z,101118.06
2022-12-04T12:00:27.929Z,101117.63
2022-12-04T12:03:20.378Z,101113.09
2022-12-04T12:06:32.223Z,101113.47
2022-12-04T12:09:22.501Z,101114.22
2022-12-04T12:11:59.931Z,101109.75
2022-12-04T12:14:43.110Z,101117.00
2022-12-04T12:17:28.270Z,101114.53
2022-12-04T12:20:16.194Z,101109.63
2022-12-04T12:23:14.393Z,101112.84
2022-12-04T12:25:58.945Z,101112.00
2022-12-04T12:29:02.836Z,101111.22
2022-12-04T12:31:58.998Z,101110.78
2022-12-04T12:34:39.828Z,101115.50
2022-12-04T12:37:24.616Z,101115.47
2022-12-04T12:40:05.736Z,101106.09
2022-12-04T12:42:47.450Z,101105.66
2022-12-04T12:45:30.059Z,101111.22
2022-12-04T12:48:11.588Z,101112.44
2022-12-04T12:51:08.922Z,101109.97
2022-12-04T12:53:48.262Z,101109.53
2022-12-04T12:56:28.642Z,101106.66
2022-12-04T12:59:05.849Z,101102.97
2022-12-04T13:01:48.878Z,101109.84
2022-12-04T13:04:31.888Z,101109.38
2022-12-04T13:07:23.634Z,101102.91
2022-12-04T13:10:05.045Z,101112.59
2022-12-04T13:12:47.357Z,101100.47
2022-12-04T13:15:22.130Z,101104.47
2022-12-04T13:17:58.989Z,101110.53
2022-12-04T13:20:36.552Z,101114.94
2022-12-04T13:23:28.563Z,101116.50
2022-12-04T13:26:10.218Z,101107.59
2022-12-04T13:28:57.283Z,101116.09
2022-12-04T13:31:40.831Z,101118.47
2022-12-04T13:34:46.648Z,101113.50
2022-12-04T13:37:50.609Z,101117.81
2022-12-04T13:40:36.198Z,101121.41
2022-12-04T13:43:30.466Z,101126.16
2022-12-04T13:46:07.305Z,101121.69
2022-12-04T13:48:42.461Z,101120.91
2022-12-04T13:51:40.998Z,101124.13
2022-12-04T13:54:31.448Z,101127.69
2022-12-04T13:57:24.275Z,101127.25
2022-12-04T14:00:07.805Z,101126.44
2022-12-04T14:02:40.643Z,101126.78
2022-12-04T14:05:14.573Z,101129.22
2022-12-04T14:08:04.264Z,101129.13
2022-12-04T14:10:42.089Z,101129.50
2022-12-04T14:13:23.550Z,101128.69
2022-12-04T14:16:08.259Z,101124.25
2022-12-04T14:18:42.116Z,101129.06
2022-12-04T14:21:13.153Z,101121.78
2022-12-04T14:23:45.469Z,101129.91
2022-12-04T14:26:55.974Z,101129.91
2022-12-04T14:29:50.535Z,101131.44
2022-12-04T14:32:26.756Z,101132.66
2022-12-04T14:35:00.859Z,101124.19
2022-12-04T14:37:38.570Z,101129.38
2022-12-04T14:40:22.552Z,101127.38
2022-12-04T14:42:55.016Z,101121.72
2022-12-04T14:45:40.085Z,101133.00
2022-12-04T14:48:35.477Z,101123.72
2022-12-04T14:51:20.927Z,101126.91
2022-12-04T14:54:02.326Z,101131.75
2022-12-04T14:57:00.617Z,101132.94
2022-12-04T14:59:44.708Z,101132.16
2022-12-04T15:02:20.530Z,101133.34
2022-12-04T15:04:53.206Z,101129.69
2022-12-04T15:07:32.085Z,101132.06
2022-12-04T15:10:32.705Z,101138.94
2022-12-04T15:13:03.206Z,101136.84
2022-12-04T15:15:34.447Z,101145.66
2022-12-04T15:18:12.389Z,101142.44
2022-12-04T15:20:56.336Z,101142.78
2022-12-04T15:23:32.657Z,101143.16
2022-12-04T15:26:09.902Z,101146.00
2022-12-04T15:28:46.722Z,101144.34
2022-12-04T15:31:27.138Z,101146.38
2022-12-04T15:34:03.225Z,101149.56
2022-12-04T15:36:46.144Z,101149.94
2022-12-04T15:39:23.055Z,101160.00
2022-12-04T15:41:53.849Z,101163.13
2022-12-04T15:44:29.405Z,101162.34
2022-12-04T15:47:03.004Z,101170.81
2022-12-04T15:49:35.372Z,101172.78
2022-12-04T15:52:17.781Z,101175.19
2022-12-04T15:54:56.969Z,101180.84
2022-12-04T15:57:32.865Z,101169.09
2022-12-04T16:00:05.666Z,101173.13
2022-12-04T16:02:42.427Z,101180.78
2022-12-04T16:05:28.964Z,101175.47
2022-12-04T16:08:02.552Z,101175.88
2022-12-04T16:10:38.477Z,101184.34
2022-12-04T16:13:09.360Z,101184.34
2022-12-04T16:15:44.330Z,101191.56
2022-12-04T16:18:17.407Z,101187.44
2022-12-04T16:20:48.011Z,101196.69
2022-12-04T16:23:19.103Z,101201.41
2022-12-04T16:25:53.628Z,101202.16
2022-12-04T16:28:24.082Z,101202.91
2022-12-04T16:30:54.732Z,101200.44
2022-12-04T16:33:25.321Z,101211.66
2022-12-04T16:35:55.663Z,101214.03
2022-12-04T16:38:26.180Z,101220.44
2022-12-04T16:40:58.079Z,101222.81
2022-12-04T16:43:27.959Z,101222.34
2022-12-04T16:46:01.669Z,101230.38
2022-12-04T16:48:35.128Z,101229.09
2022-12-04T16:51:05.544Z,101230.66
2022-12-04T16:53:36.142Z,101239.47
2022-12-04T16:56:08.646Z,101239.06
2022-12-04T16:58:39.097Z,101250.69
2022-12-04T17:01:26.286Z,101250.22
2022-12-04T17:03:57.124Z,101254.63
2022-12-04T17:06:27.662Z,101258.63
2022-12-04T17:08:58.053Z,101253.69
2022-12-04T17:11:30.814Z,101258.50
2022-12-04T17:14:03.227Z,101258.88
2022-12-04T17:16:33.813Z,101260.06
2022-12-04T17:19:04.456Z,101257.63
2022-12-04T17:21:35.078Z,101263.25
2022-12-04T17:24:05.506Z,101261.63
2022-12-04T17:26:38.559Z,101264.78
2022-12-04T17:29:09.028Z,101271.19
2022-12-04T17:31:39.589Z,101264.25
2022-12-04T17:34:09.907Z,101266.19
2022-12-04T17:36:39.646Z,101271.00
2022-12-04T17:39:12.064Z,101268.94
2022-12-04T17:41:44.153Z,101279.38
2022-12-04T17:44:14.071Z,101279.38
2022-12-04T17:46:45.927Z,101282.56
2022-12-04T17:49:16.050Z,101278.47
2022-12-04T17:51:46.041Z,101271.53
2022-12-04T17:54:16.861Z,101280.00
2022-12-04T17:56:51.279Z,101275.19
2022-12-04T17:59:24.784Z,101273.56
2022-12-04T18:01:55.744Z,101282.03
2022-12-04T18:04:26.319Z,101284.47
2022-12-04T18:06:56.944Z,101282.47
2022-12-04T18:09:27.343Z,101285.31
2022-12-04T18:12:01.987Z,101287.75
2022-12-04T18:14:35.518Z,101291.41
2022-12-04T18:17:05.865Z,101296.66
2022-12-04T18:19:36.410Z,101300.28
2022-12-04T18:22:07.343Z,101299.13
2022-12-04T18:24:37.924Z,101294.31
2022-12-04T18:27:10.866Z,101301.59
2022-12-04T18:29:42.690Z,101299.56
2022-12-04T18:32:13.295Z,101308.84
2022-12-04T18:34:44.013Z,101307.22
2022-12-04T18:37:14.581Z,101311.22
2022-12-04T18:39:44.804Z,101315.69
2022-12-04T18:42:17.287Z,101318.50
2022-12-04T18:44:49.028Z,101321.69
2022-12-04T18:47:19.579Z,101317.22
2022-12-04T18:49:49.646Z,101316.78
2022-12-04T18:52:20.266Z,101318.78
2022-12-04T18:54:50.515Z,101322.31
2022-12-04T18:57:23.007Z,101319.50
2022-12-04T18:59:53.589Z,101321.41
2022-12-04T19:02:24.252Z,101323.31
2022-12-04T19:04:56.713Z,101324.41
2022-12-04T19:07:27.484Z,101324.69
2022-12-04T19:10:13.522Z,101323.38
2022-12-04T19:12:45.961Z,101330.56
2022-12-04T19:15:16.462Z,101334.94
2022-12-04T19:17:46.713Z,101329.31
2022-12-04T19:20:18.569Z,101339.41
2022-12-04T19:22:49.418Z,101322.81
2022-12-04T19:25:20.158Z,101325.31
2022-12-04T19:27:53.226Z,101329.31
2022-12-04T19:30:23.943Z,101331.28
2022-12-04T19:32:53.950Z,101336.13
2022-12-04T19:35:23.968Z,101326.03
2022-12-04T19:37:54.772Z,101332.84
2022-12-04T19:40:25.974Z,101331.19
2022-12-04T19:43:02.662Z,101341.66
2022-12-04T19:45:33.867Z,101343.22
2022-12-04T19:48:04.539Z,101333.44
2022-12-04T19:50:35.641Z,101339.94
2022-12-04T19:53:06.489Z,101335.81
2022-12-04T19:55:39.782Z,101339.44
2022-12-04T19:58:11.791Z,101337.00
2022-12-04T20:00:42.187Z,101332.53
2022-12-04T20:03:12.807Z,101340.97
2022-12-04T20:05:44.169Z,101342.97
2022-12-04T20:08:14.700Z,101341.69
2022-12-04T20:10:45.018Z,101342.88
2022-12-04T20:13:16.712Z,101344.88
2022-12-04T20:15:47.475Z,101343.25
2022-12-04T20:18:18.467Z,101342.78
2022-12-04T20:21:01.088Z,101349.25
2022-12-04T20:23:31.891Z,101351.59
2022-12-04T20:26:08.140Z,101357.25
2022-12-04T20:28:40.412Z,101357.56
2022-12-04T20:31:23.587Z,101352.78
2022-12-04T20:33:57.127Z,101345.88
2022-12-04T20:36:30.170Z,101352.69
2022-12-04T20:39:01.135Z,101356.69
2022-12-04T20:41:33.722Z,101349.75
2022-12-04T20:44:09.379Z,101347.28
2022-12-04T20:46:43.302Z,101355.28
2022-12-04T20:49:21.737Z,101345.53
2022-12-04T20:51:54.219Z,101334.97
2022-12-04T20:54:25.212Z,101341.81
2022-12-04T20:56:56.710Z,101340.19
2022-12-04T20:59:28.396Z,101334.09
2022-12-04T21:01:59.844Z,101340.88
2022-12-04T21:04:30.518Z,101336.81
2022-12-04T21:07:01.350Z,101335.97
2022-12-04T21:09:31.347Z,101336.81
2022-12-04T21:12:02.597Z,101335.16
2022-12-04T21:15:06.094Z,101328.69
2022-12-04T21:17:39.352Z,101334.22
2022-12-04T21:20:12.087Z,101334.22
2022-12-04T21:22:42.904Z,101317.69
2022-12-04T21:25:13.670Z,101326.13
2022-12-04T21:27:44.883Z,101326.13
2022-12-04T21:30:18.287Z,101326.50
2022-12-04T21:32:48.291Z,101326.50
2022-12-04T21:35:18.883Z,101326.84
2022-12-04T21:37:49.301Z,101323.22
2022-12-04T21:40:19.254Z,101323.56
2022-12-04T21:42:49.773Z,101324.41
2022-12-04T21:45:22.376Z,101327.22
2022-12-04T21:47:53.383Z,101324.75
2022-12-04T21:50:24.034Z,101321.47
2022-12-04T21:52:56.592Z,101319.38
2022-12-04T21:55:27.189Z,101324.06
2022-12-04T21:57:57.725Z,101318.34
2022-12-04T22:00:30.145Z,101326.28
2022-12-04T22:03:00.867Z,101318.56
2022-12-04T22:05:33.763Z,101321.72
2022-12-04T22:08:04.381Z,101311.19
2022-12-04T22:10:34.663Z,101316.81
2022-12-04T22:13:04.355Z,101301.09
2022-12-04T22:15:41.347Z,101310.72
2022-12-04T22:18:12.878Z,101309.88
2022-12-04T22:20:45.545Z,101307.91
2022-12-04T22:23:16.064Z,101300.63
2022-12-04T22:25:50.098Z,101301.44
2022-12-04T22:28:20.655Z,101299.81
2022-12-04T22:30:53.346Z,101302.28
2022-12-04T22:33:23.381Z,101303.44
2022-12-04T22:35:58.336Z,101305.00
2022-12-04T22:38:28.798Z,101297.25
2022-12-04T22:41:02.949Z,101291.97
2022-12-04T22:43:40.511Z,101294.69
2022-12-04T22:46:15.455Z,101301.03
2022-12-04T22:48:46.692Z,101300.56
2022-12-04T22:51:20.298Z,101302.47
2022-12-04T22:53:53.487Z,101302.31
2022-12-04T22:56:26.964Z,101312.31
2022-12-04T22:58:58.523Z,101301.75
2022-12-04T23:01:33.889Z,101302.94
2022-12-04T23:04:06.796Z,101303.28
2022-12-04T23:06:37.846Z,101308.44
2022-12-04T23:09:13.627Z,101306.47
2022-12-04T23:11:44.948Z,101301.53
2022-12-04T23:14:17.330Z,101295.09
2022-12-04T23:16:50.863Z,101291.44
2022-12-04T23:19:22.558Z,101299.09
2022-12-04T23:21:56.951Z,101296.59
2022-12-04T23:24:28.598Z,101290.16
2022-12-04T23:26:59.075Z,101284.06
2022-12-04T23:29:52.117Z,101289.22
2022-12-04T23:32:21.565Z,101282.69
2022-12-04T23:34:53.503Z,101283.38
2022-12-04T23:37:24.139Z,101280.94
2022-12-04T23:39:54.373Z,101288.09
2022-12-04T23:42:24.891Z,101283.94
2022-12-04T23:44:55.455Z,101285.94
2022-12-04T23:47:27.574Z,101287.94
2022-12-04T23:49:57.836Z,101285.47
2022-12-04T23:52:28.118Z,101283.47
2022-12-04T23:54:59.041Z,101283.94
2022-12-04T23:57:31.962Z,101275.50
